createdAt,value
2022-10-02T00:02:16.951Z,97911.19
2022-10-02T00:05:13.593Z,97908.44
2022-10-02T00:07:46.169Z,97916.22
2022-10-02T00:10:23.072Z,97913.50
2022-10-02T00:12:55.853Z,97923.50
2022-10-02T00:15:29.703Z,97922.56
2022-10-02T00:18:02.370Z,97925.09
2022-10-02T00:20:39.416Z,97926.88
2022-10-02T00:23:30.753Z,97942.59
2022-10-02T00:26:05.780Z,97943.84
2022-10-02T00:28:44.857Z,97942.88
2022-10-02T00:31:33.468Z,97945.63
2022-10-02T00:34:23.222Z,97937.75
2022-10-02T00:37:02.934Z,97951.53
2022-10-02T00:40:03.719Z,97942.91
2022-10-02T00:42:41.921Z,97945.94
2022-10-02T00:45:22.102Z,97957.22
2022-10-02T00:47:59.952Z,97952.03
2022-10-02T00:50:58.549Z,97958.06
2022-10-02T00:53:36.038Z,97949.44
2022-10-02T00:56:28.114Z,97956.66
2022-10-02T00:59:32.960Z,97957.94
2022-10-02T01:02:08.856Z,97964.69
2022-10-02T01:04:38.187Z,97964.16
2022-10-02T01:07:08.327Z,97964.88
2022-10-02T01:09:36.384Z,97965.31
2022-10-02T01:12:03.788Z,97965.31
2022-10-02T01:14:35.107Z,97973.00
2022-10-02T01:17:02.771Z,97974.47
2022-10-02T01:19:37.391Z,97976.47
2022-10-02T01:22:12.940Z,97987.13
2022-10-02T01:24:56.568Z,97984.06
2022-10-02T01:27:24.711Z,97982.28
2022-10-02T01:29:57.381Z,97982.72
2022-10-02T01:32:25.987Z,97985.88
2022-10-02T01:34:54.087Z,97996.06
2022-10-02T01:37:22.957Z,97988.84
2022-10-02T01:39:50.134Z,97994.31
2022-10-02T01:42:17.273Z,98000.81
2022-10-02T01:44:45.341Z,97989.66
2022-10-02T01:47:16.021Z,97994.19
2022-10-02T01:50:05.821Z,97998.50
2022-10-02T01:52:56.453Z,97999.56
2022-10-02T01:55:46.467Z,98008.06
2022-10-02T01:58:25.816Z,98003.66
2022-10-02T02:01:08.976Z,98006.72
2022-10-02T02:03:41.213Z,98008.19
2022-10-02T02:06:35.065Z,98007.94
2022-10-02T02:09:11.325Z,98016.44
2022-10-02T02:11:41.759Z,98012.03
2022-10-02T02:14:30.488Z,98018.31
2022-10-02T02:17:06.124Z,98003.16
2022-10-02T02:19:49.177Z,98008.63
2022-10-02T02:22:21.320Z,98010.13
2022-10-02T02:25:05.297Z,98021.59
2022-10-02T02:27:36.110Z,98019.38
2022-10-02T02:30:07.383Z,98017.66
2022-10-02T02:32:36.701Z,98024.63
2022-10-02T02:35:14.144Z,98017.47
2022-10-02T02:37:42.740Z,98015.25
2022-10-02T02:40:14.711Z,98019.25
2022-10-02T02:42:46.357Z,98014.28
2022-10-02T02:45:38.011Z,98016.38
2022-10-02T02:48:11.841Z,98020.13
2022-10-02T02:50:47.611Z,98021.19
2022-10-02T02:53:18.004Z,98024.34
2022-10-02T02:55:55.897Z,98027.59
2022-10-02T02:58:33.155Z,98034.88
2022-10-02T03:01:01.446Z,98023.94
2022-10-02T03:03:28.631Z,98036.34
2022-10-02T03:06:21.676Z,98033.59
2022-10-02T03:08:51.140Z,98040.75
2022-10-02T03:11:58.687Z,98040.69
2022-10-02T03:14:50.572Z,98040.69
2022-10-02T03:17:52.881Z,98045.63
2022-10-02T03:20:24.092Z,98042.69
2022-10-02T03:23:09.951Z,98039.94
2022-10-02T03:25:40.317Z,98043.44
2022-10-02T03:28:27.215Z,98048.91
2022-10-02T03:31:03.703Z,98046.69
2022-10-02T03:33:31.866Z,98043.94
2022-10-02T03:35:59.681Z,98047.28
2022-10-02T03:38:28.108Z,98045.81
2022-10-02T03:40:58.123Z,98043.09
2022-10-02T03:43:27.807Z,98040.88
2022-10-02T03:45:55.016Z,98040.13
2022-10-02T03:48:22.495Z,98037.41
2022-10-02T03:50:52.450Z,98039.69
2022-10-02T03:53:22.660Z,98039.88
2022-10-02T03:55:56.098Z,98037.41
2022-10-02T03:58:23.508Z,98040.66
2022-10-02T04:01:12.230Z,98047.28
2022-10-02T04:03:48.204Z,98053.50
2022-10-02T04:06:20.510Z,98053.72
2022-10-02T04:08:56.127Z,98050.47
2022-10-02T04:11:32.442Z,98054.22
2022-10-02T04:14:06.601Z,98052.03
2022-10-02T04:16:40.520Z,98062.97
2022-10-02T04:19:17.997Z,98049.81
2022-10-02T04:21:54.540Z,98057.28
2022-10-02T04:24:28.522Z,98039.16
2022-10-02T04:27:06.193Z,98044.94
2022-10-02T04:29:44.197Z,98043.00
2022-10-02T04:32:25.784Z,98041.53
2022-10-02T04:34:53.229Z,98034.06
2022-10-02T04:37:42.012Z,98036.06
2022-10-02T04:40:35.749Z,98048.72
2022-10-02T04:43:40.408Z,98051.22
2022-10-02T04:46:15.469Z,98053.75
2022-10-02T04:48:51.505Z,98054.25
2022-10-02T04:51:21.217Z,98047.59
2022-10-02T04:54:13.064Z,98055.06
2022-10-02T04:57:15.524Z,98052.84
2022-10-02T05:00:02.899Z,98053.16
2022-10-02T05:02:46.148Z,98059.91
2022-10-02T05:05:47.173Z,98057.66
2022-10-02T05:08:20.762Z,98057.66
2022-10-02T05:11:04.117Z,98056.41
2022-10-02T05:13:56.842Z,98060.38
2022-10-02T05:16:54.982Z,98051.44
2022-10-02T05:19:53.427Z,98052.72
2022-10-02T05:22:44.405Z,98061.13
2022-10-02T05:25:36.309Z,98065.59
2022-10-02T05:28:24.238Z,98061.06
2022-10-02T05:30:57.987Z,98062.53
2022-10-02T05:33:54.074Z,98059.00
2022-10-02T05:36:40.133Z,98063.88
2022-10-02T05:39:10.225Z,98059.03
2022-10-02T05:41:47.368Z,98057.50
2022-10-02T05:44:17.280Z,98064.88
2022-10-02T05:47:05.614Z,98064.78
2022-10-02T05:49:36.070Z,98060.72
2022-10-02T05:52:06.840Z,98061.91
2022-10-02T05:55:00.309Z,98059.06
2022-10-02T05:57:37.061Z,98052.56
2022-10-02T06:00:22.583Z,98058.47
2022-10-02T06:03:14.365Z,98053.66
2022-10-02T06:05:48.661Z,98051.56
2022-10-02T06:08:18.838Z,98048.53
2022-10-02T06:10:51.665Z,98056.13
2022-10-02T06:13:24.787Z,98057.19
2022-10-02T06:16:15.639Z,98062.03
2022-10-02T06:18:49.054Z,98062.69
2022-10-02T06:21:18.929Z,98058.59
2022-10-02T06:23:49.813Z,98058.47
2022-10-02T06:26:27.128Z,98061.66
2022-10-02T06:29:02.325Z,98070.72
2022-10-02T06:31:57.246Z,98066.41
2022-10-02T06:34:24.464Z,98067.53
2022-10-02T06:37:13.368Z,98064.91
2022-10-02T06:39:58.746Z,98073.03
2022-10-02T06:42:34.862Z,98067.41
2022-10-02T06:45:32.351Z,98063.50
2022-10-02T06:48:05.637Z,98063.09
2022-10-02T06:50:41.141Z,98058.44
2022-10-02T06:53:47.971Z,98060.75
2022-10-02T06:56:22.216Z,98057.53
2022-10-02T06:59:19.868Z,98053.81
2022-10-02T07:02:11.694Z,98063.09
2022-10-02T07:04:48.234Z,98053.16
2022-10-02T07:07:49.845Z,98055.63
2022-10-02T07:10:29.833Z,98058.50
2022-10-02T07:13:03.029Z,98052.41
2022-10-02T07:16:23.032Z,98050.66
2022-10-02T07:19:05.455Z,98056.81
2022-10-02T07:22:01.023Z,98047.53
2022-10-02T07:24:46.289Z,98051.44
2022-10-02T07:27:14.086Z,98048.75
2022-10-02T07:29:51.093Z,98037.25
2022-10-02T07:32:43.678Z,98041.72
2022-10-02T07:35:39.547Z,98045.25
2022-10-02T07:38:44.920Z,98042.91
2022-10-02T07:41:20.962Z,98043.13
2022-10-02T07:44:10.137Z,98035.84
2022-10-02T07:46:40.135Z,98040.66
2022-10-02T07:50:04.099Z,98053.16
2022-10-02T07:52:46.783Z,98047.69
2022-10-02T07:55:17.633Z,98047.69
2022-10-02T07:58:04.934Z,98047.16
2022-10-02T08:00:36.421Z,98047.91
2022-10-02T08:03:12.551Z,98050.69
2022-10-02T08:05:42.742Z,98045.53
2022-10-02T08:08:55.421Z,98046.09
2022-10-02T08:11:33.307Z,98051.03
2022-10-02T08:14:11.510Z,98056.56
2022-10-02T08:16:46.626Z,98055.28
2022-10-02T08:19:39.445Z,98053.97
2022-10-02T08:22:15.304Z,98057.66
2022-10-02T08:24:47.898Z,98058.75
2022-10-02T08:27:21.660Z,98059.50
2022-10-02T08:29:53.770Z,98059.50
2022-10-02T08:32:22.491Z,98069.78
2022-10-02T08:34:49.716Z,98078.78
2022-10-02T08:37:35.134Z,98069.41
2022-10-02T08:40:36.102Z,98074.53
2022-10-02T08:43:26.040Z,98078.03
2022-10-02T08:46:35.134Z,98069.41
2022-10-02T08:49:28.865Z,98059.84
2022-10-02T08:52:14.118Z,98057.09
2022-10-02T08:55:20.762Z,98048.84
2022-10-02T08:58:11.070Z,98052.91
2022-10-02T09:00:56.680Z,98052.72
2022-10-02T09:03:29.983Z,98045.91
2022-10-02T09:06:23.495Z,98049.41
2022-10-02T09:08:56.082Z,98052.72
2022-10-02T09:11:50.336Z,98046.28
2022-10-02T09:14:43.548Z,98046.59
2022-10-02T09:17:13.487Z,98044.41
2022-10-02T09:19:58.586Z,98041.06
2022-10-02T09:22:54.087Z,98030.03
2022-10-02T09:25:33.612Z,98038.09
2022-10-02T09:28:22.427Z,98033.09
2022-10-02T09:31:15.855Z,98035.66
2022-10-02T09:34:20.102Z,98031.03
2022-10-02T09:36:55.599Z,98039.16
2022-10-02T09:39:44.079Z,98045.09
2022-10-02T09:42:35.342Z,98042.34
2022-10-02T09:45:28.495Z,98031.34
2022-10-02T09:48:23.526Z,98037.41
2022-10-02T09:51:28.193Z,98028.03
2022-10-02T09:54:25.752Z,98026.03
2022-10-02T09:57:43.574Z,98013.53
2022-10-02T10:00:17.924Z,98022.38
2022-10-02T10:02:54.243Z,98026.78
2022-10-02T10:05:54.148Z,98021.50
2022-10-02T10:08:49.241Z,98018.56
2022-10-02T10:11:47.474Z,98010.06
2022-10-02T10:14:33.767Z,98012.09
2022-10-02T10:17:34.252Z,98012.81
2022-10-02T10:20:40.759Z,98017.25
2022-10-02T10:23:17.779Z,98010.28
2022-10-02T10:26:15.098Z,98008.81
2022-10-02T10:28:51.232Z,98011.91
2022-10-02T10:31:42.425Z,98012.09
2022-10-02T10:34:30.610Z,98001.81
2022-10-02T10:37:25.279Z,98010.06
2022-10-02T10:40:36.024Z,98008.81
2022-10-02T10:43:42.053Z,98006.06
2022-10-02T10:46:31.245Z,98000.34
2022-10-02T10:49:14.549Z,98016.88
2022-10-02T10:52:07.637Z,98035.41
2022-10-02T10:54:44.808Z,98039.81
2022-10-02T10:57:16.051Z,98059.03
2022-10-02T10:59:58.748Z,98061.09
2022-10-02T11:02:59.335Z,98040.75
2022-10-02T11:05:47.580Z,98061.47
2022-10-02T11:08:23.488Z,98066.25
2022-10-02T11:11:21.213Z,98082.22
2022-10-02T11:14:03.220Z,98063.16
2022-10-02T11:16:54.299Z,98059.75
2022-10-02T11:19:49.092Z,98066.34
2022-10-02T11:22:31.074Z,98056.00
2022-10-02T11:25:16.257Z,98060.88
2022-10-02T11:28:04.934Z,98051.69
2022-10-02T11:30:53.882Z,98043.81
2022-10-02T11:33:38.226Z,98041.38
2022-10-02T11:36:05.242Z,98044.66
2022-10-02T11:38:53.295Z,98032.53
2022-10-02T11:41:25.514Z,98031.28
2022-10-02T11:44:12.960Z,98026.19
2022-10-02T11:47:07.245Z,98021.97
2022-10-02T11:50:12.998Z,98015.97
2022-10-02T11:52:52.256Z,98030.41
2022-10-02T11:55:34.988Z,98026.38
2022-10-02T11:58:20.757Z,98014.97
2022-10-02T12:01:11.011Z,98013.06
2022-10-02T12:04:18.697Z,98013.88
2022-10-02T12:07:11.230Z,98009.22
2022-10-02T12:09:48.258Z,98015.50
2022-10-02T12:12:32.580Z,98015.09
2022-10-02T12:15:00.989Z,98013.38
2022-10-02T12:17:43.253Z,98012.69
2022-10-02T12:20:57.048Z,98001.44
2022-10-02T12:24:07.795Z,97996.63
2022-10-02T12:26:58.933Z,98000.34
2022-10-02T12:29:41.105Z,97994.03
2022-10-02T12:32:36.338Z,97994.28
2022-10-02T12:35:18.031Z,97996.19
2022-10-02T12:38:09.126Z,97996.63
2022-10-02T12:40:57.655Z,98002.56
2022-10-02T12:43:58.843Z,97992.31
2022-10-02T12:46:39.768Z,97990.53
2022-10-02T12:49:25.282Z,97991.53
2022-10-02T12:52:27.674Z,97984.06
2022-10-02T12:55:27.192Z,97993.25
2022-10-02T12:58:10.191Z,97991.25
2022-10-02T13:01:23.434Z,97993.28
2022-10-02T13:04:21.200Z,97994.75
2022-10-02T13:07:16.883Z,97989.25
2022-10-02T13:10:04.069Z,97996.97
2022-10-02T13:12:37.143Z,97992.59
2022-10-02T13:15:29.024Z,97985.97
2022-10-02T13:18:05.212Z,97990.38
2022-10-02T13:20:51.793Z,97997.72
2022-10-02T13:23:25.560Z,97998.66
2022-10-02T13:26:00.483Z,98003.06
2022-10-02T13:28:42.724Z,97996.47
2022-10-02T13:31:27.750Z,97993.72
2022-10-02T13:34:36.388Z,97993.16
2022-10-02T13:37:11.133Z,97988.75
2022-10-02T13:40:07.324Z,97984.34
2022-10-02T13:43:06.112Z,97987.84
2022-10-02T13:45:50.636Z,97978.84
2022-10-02T13:48:24.566Z,97981.59
2022-10-02T13:51:05.112Z,97991.50
2022-10-02T13:53:50.213Z,97992.78
2022-10-02T13:56:38.535Z,97997.38
2022-10-02T13:59:14.026Z,97988.91
2022-10-02T14:02:03.295Z,98001.19
2022-10-02T14:04:59.094Z,98002.47
2022-10-02T14:07:51.178Z,98001.03
2022-10-02T14:10:33.988Z,97992.94
2022-10-02T14:13:27.806Z,97995.13
2022-10-02T14:16:13.821Z,97991.63
2022-10-02T14:18:49.338Z,98004.31
2022-10-02T14:21:30.920Z,98006.47
2022-10-02T14:24:03.976Z,98002.81
2022-10-02T14:26:44.757Z,98000.94
2022-10-02T14:29:30.308Z,97995.97
2022-10-02T14:32:22.473Z,97990.25
2022-10-02T14:34:58.495Z,97992.41
2022-10-02T14:37:41.401Z,97990.94
2022-10-02T14:40:14.532Z,97990.19
2022-10-02T14:42:57.065Z,97995.34
2022-10-02T14:45:47.286Z,98007.81
2022-10-02T14:48:49.919Z,98002.72
2022-10-02T14:51:28.971Z,98006.41
2022-10-02T14:54:45.844Z,98010.81
2022-10-02T14:57:25.371Z,98010.09
2022-10-02T15:00:01.416Z,98004.59
2022-10-02T15:03:15.385Z,98011.56
2022-10-02T15:06:05.162Z,98007.13
2022-10-02T15:08:40.277Z,98015.94
2022-10-02T15:11:19.424Z,98010.25
2022-10-02T15:13:50.453Z,98023.25
2022-10-02T15:16:40.213Z,98010.56
2022-10-02T15:19:24.571Z,98013.31
2022-10-02T15:21:59.606Z,98023.38
2022-10-02T15:25:28.464Z,98021.91
2022-10-02T15:28:31.438Z,98032.00
2022-10-02T15:31:09.203Z,98033.06
2022-10-02T15:34:01.816Z,98036.16
2022-10-02T15:36:36.296Z,98042.22
2022-10-02T15:39:24.814Z,98045.28
2022-10-02T15:42:04.722Z,98035.59
2022-10-02T15:44:50.603Z,98043.28
2022-10-02T15:47:35.813Z,98045.84
2022-10-02T15:50:25.138Z,98045.84
2022-10-02T15:53:05.331Z,98054.97
2022-10-02T15:55:56.016Z,98048.91
2022-10-02T15:58:38.238Z,98063.34
2022-10-02T16:01:40.269Z,98051.19
2022-10-02T16:04:25.138Z,98053.91
2022-10-02T16:07:36.294Z,98060.28
2022-10-02T16:10:26.130Z,98064.63
2022-10-02T16:13:01.681Z,98073.78
2022-10-02T16:15:53.045Z,98072.28
2022-10-02T16:18:28.046Z,98075.91
2022-10-02T16:21:06.424Z,98066.72
2022-10-02T16:24:02.294Z,98067.81
2022-10-02T16:26:37.215Z,98060.44
2022-10-02T16:29:31.974Z,98078.19
2022-10-02T16:32:10.469Z,98074.50
2022-10-02T16:35:24.192Z,98096.81
2022-10-02T16:38:00.056Z,98096.94
2022-10-02T16:40:36.395Z,98099.16
2022-10-02T16:43:41.151Z,98096.75
2022-10-02T16:46:12.572Z,98104.25
2022-10-02T16:49:15.293Z,98106.78
2022-10-02T16:51:57.902Z,98103.84
2022-10-02T16:54:43.403Z,98109.13
2022-10-02T16:57:50.028Z,98110.59
2022-10-02T17:00:34.135Z,98116.84
2022-10-02T17:03:35.634Z,98124.53
2022-10-02T17:06:32.545Z,98131.28
2022-10-02T17:09:22.217Z,98127.63
2022-10-02T17:11:52.905Z,98129.41
2022-10-02T17:14:38.097Z,98129.63
2022-10-02T17:17:12.386Z,98137.53
2022-10-02T17:19:52.883Z,98137.13
2022-10-02T17:22:42.193Z,98142.41
2022-10-02T17:25:27.190Z,98150.63
2022-10-02T17:27:58.586Z,98158.88
2022-10-02T17:30:27.679Z,98160.88
2022-10-02T17:33:02.284Z,98162.34
2022-10-02T17:35:57.289Z,98156.13
2022-10-02T17:38:52.582Z,98164.91
2022-10-02T17:41:42.389Z,98164.16
2022-10-02T17:44:22.745Z,98162.69
2022-10-02T17:47:27.788Z,98158.13
2022-10-02T17:50:19.253Z,98175.16
2022-10-02T17:53:26.051Z,98176.06
2022-10-02T17:56:28.265Z,98179.91
2022-10-02T17:59:07.605Z,98180.00
2022-10-02T18:01:46.476Z,98185.84
2022-10-02T18:04:46.578Z,98184.91
2022-10-02T18:07:48.217Z,98190.69
2022-10-02T18:10:48.595Z,98186.81
2022-10-02T18:13:39.262Z,98194.94
2022-10-02T18:16:12.621Z,98200.72
2022-10-02T18:18:59.943Z,98197.38
2022-10-02T18:22:08.805Z,98211.72
2022-10-02T18:24:44.958Z,98219.09
2022-10-02T18:27:53.280Z,98219.84
2022-10-02T18:30:22.097Z,98222.34
2022-10-02T18:32:56.498Z,98225.63
2022-10-02T18:35:32.072Z,98229.66
2022-10-02T18:38:12.553Z,98234.19
2022-10-02T18:40:56.114Z,98242.72
2022-10-02T18:43:31.495Z,98241.78
2022-10-02T18:46:32.201Z,98245.34
2022-10-02T18:49:21.719Z,98245.13
2022-10-02T18:51:49.093Z,98243.25
2022-10-02T18:54:24.885Z,98246.50
2022-10-02T18:57:29.299Z,98250.50
2022-10-02T19:00:24.561Z,98258.53
2022-10-02T19:03:19.986Z,98261.34
2022-10-02T19:05:51.888Z,98269.97
2022-10-02T19:09:03.995Z,98262.81
2022-10-02T19:11:33.238Z,98261.09
2022-10-02T19:14:11.937Z,98263.63
2022-10-02T19:16:39.257Z,98266.69
2022-10-02T19:19:17.195Z,98265.72
2022-10-02T19:21:44.486Z,98268.25
2022-10-02T19:24:15.817Z,98277.44
2022-10-02T19:26:46.045Z,98277.44
2022-10-02T19:29:25.474Z,98277.66
2022-10-02T19:31:53.691Z,98289.56
2022-10-02T19:34:27.616Z,98282.81
2022-10-02T19:36:58.854Z,98292.50
2022-10-02T19:39:32.155Z,98288.50
2022-10-02T19:42:03.154Z,98296.97
2022-10-02T19:44:33.610Z,98292.22
2022-10-02T19:47:03.169Z,98301.41
2022-10-02T19:49:38.681Z,98299.09
2022-10-02T19:52:30.419Z,98307.00
2022-10-02T19:54:58.299Z,98302.47
2022-10-02T19:57:30.061Z,98307.44
2022-10-02T19:59:59.532Z,98316.09
2022-10-02T20:02:36.764Z,98315.28
2022-10-02T20:05:07.632Z,98327.00
2022-10-02T20:07:37.052Z,98322.66
2022-10-02T20:10:12.348Z,98319.38
2022-10-02T20:12:43.878Z,98322.38
2022-10-02T20:15:15.583Z,98326.78
2022-10-02T20:17:42.732Z,98317.50
2022-10-02T20:20:13.326Z,98331.22
2022-10-02T20:22:43.285Z,98332.72
2022-10-02T20:25:28.856Z,98340.94
2022-10-02T20:28:38.659Z,98343.69
2022-10-02T20:31:11.222Z,98340.22
2022-10-02T20:33:45.972Z,98356.69
2022-10-02T20:36:17.153Z,98360.16
2022-10-02T20:38:51.100Z,98366.13
2022-10-02T20:41:29.055Z,98367.66
2022-10-02T20:44:04.315Z,98375.88
2022-10-02T20:46:35.686Z,98375.63
2022-10-02T20:49:30.740Z,98382.09
2022-10-02T20:52:04.056Z,98382.59
2022-10-02T20:54:40.039Z,98383.13
2022-10-02T20:57:38.231Z,98383.66
2022-10-02T21:00:21.925Z,98384.91
2022-10-02T21:03:21.249Z,98391.16
2022-10-02T21:06:08.380Z,98395.69
2022-10-02T21:08:47.088Z,98394.69
2022-10-02T21:11:19.886Z,98399.25
2022-10-02T21:14:05.775Z,98400.06
2022-10-02T21:17:08.795Z,98400.69
2022-10-02T21:19:57.380Z,98402.00
2022-10-02T21:22:37.842Z,98418.00
2022-10-02T21:25:18.240Z,98408.38
2022-10-02T21:28:19.495Z,98413.13
2022-10-02T21:31:04.141Z,98423.44
2022-10-02T21:33:38.006Z,98421.28
2022-10-02T21:36:09.769Z,98420.31
2022-10-02T21:38:49.158Z,98429.78
2022-10-02T21:41:48.408Z,98432.09
2022-10-02T21:44:24.567Z,98430.16
2022-10-02T21:47:07.330Z,98429.41
2022-10-02T21:49:53.275Z,98427.94
2022-10-02T21:53:13.179Z,98442.69
2022-10-02T21:55:52.370Z,98443.16
2022-10-02T21:58:40.541Z,98446.91
2022-10-02T22:01:29.428Z,98440.38
2022-10-02T22:04:19.216Z,98437.41
2022-10-02T22:06:59.085Z,98443.91
2022-10-02T22:09:37.094Z,98453.38
2022-10-02T22:12:17.422Z,98447.91
2022-10-02T22:15:07.431Z,98449.91
2022-10-02T22:18:06.915Z,98445.91
2022-10-02T22:21:04.931Z,98443.63
2022-10-02T22:23:50.941Z,98448.81
2022-10-02T22:26:36.250Z,98446.06
2022-10-02T22:29:15.029Z,98430.88
2022-10-02T22:32:25.665Z,98437.63
2022-10-02T22:35:20.982Z,98435.34
2022-10-02T22:38:04.652Z,98442.31
2022-10-02T22:40:43.687Z,98454.22
2022-10-02T22:43:19.364Z,98452.97
2022-10-02T22:46:05.206Z,98460.66
2022-10-02T22:48:45.574Z,98461.41
2022-10-02T22:51:45.000Z,98458.66
2022-10-02T22:54:24.596Z,98466.16
2022-10-02T22:57:07.211Z,98467.63
2022-10-02T22:59:49.703Z,98468.16
2022-10-02T23:02:38.011Z,98464.16
2022-10-02T23:05:12.303Z,98458.19
2022-10-02T23:07:49.771Z,98460.19
2022-10-02T23:10:33.397Z,98457.44
2022-10-02T23:13:06.074Z,98462.91
2022-10-02T23:16:02.227Z,98462.91
2022-10-02T23:18:39.580Z,98461.13
2022-10-02T23:21:28.336Z,98461.66
2022-10-02T23:24:04.309Z,98462.91
2022-10-02T23:26:51.825Z,98471.63
2022-10-02T23:29:25.896Z,98481.41
2022-10-02T23:32:00.737Z,98485.63
2022-10-02T23:34:39.166Z,98481.41
2022-10-02T23:37:17.597Z,98479.94
2022-10-02T23:39:59.097Z,98482.38
2022-10-02T23:42:54.218Z,98488.06
2022-10-02T23:45:27.735Z,98488.06
2022-10-02T23:48:03.329Z,98496.06
2022-10-02T23:51:01.861Z,98504.28
2022-10-02T23:54:01.418Z,98491.34
2022-10-02T23:56:33.591Z,98505.84
2022-10-02T23:59:22.831Z,98500.66
